sensor_id;sensor_type;location;lat;lon;timestamp;temperature;humidity
11532;DHT22;5822;51.000;5.874;2023-05-17T00:01:49;13.40;99.90
11532;DHT22;5822;51.000;5.874;2023-05-17T00:04:15;13.40;99.90
11532;DHT22;5822;51.000;5.874;2023-05-17T00:06:41;13.40;99.90
11532;DHT22;5822;51.000;5.874;2023-05-17T00:09:07;13.40;99.90
11532;DHT22;5822;51.000;5.874;2023-05-17T00:11:33;13.40;99.90
11532;DHT22;5822;51.000;5.874;2023-05-17T00:13:59;13.40;99.90
11532;DHT22;5822;51.000;5.874;2023-05-17T00:16:25;13.40;99.90
11532;DHT22;5822;51.000;5.874;2023-05-17T00:18:51;13.40;99.90
11532;DHT22;5822;51.000;5.874;2023-05-17T00:21:16;13.30;99.90
11532;DHT22;5822;51.000;5.874;2023-05-17T00:23:42;13.30;99.90
11532;DHT22;5822;51.000;5.874;2023-05-17T00:26:08;13.30;99.90
11532;DHT22;5822;51.000;5.874;2023-05-17T00:28:34;13.30;99.90
11532;DHT22;5822;51.000;5.874;2023-05-17T00:31:00;13.30;99.90
11532;DHT22;5822;51.000;5.874;2023-05-17T00:33:25;13.30;99.90
11532;DHT22;5822;51.000;5.874;2023-05-17T00:35:51;13.30;99.90
11532;DHT22;5822;51.000;5.874;2023-05-17T00:38:17;13.30;99.90
11532;DHT22;5822;51.000;5.874;2023-05-17T00:40:42;13.20;99.90
11532;DHT22;5822;51.000;5.874;2023-05-17T00:43:08;13.20;99.90
11532;DHT22;5822;51.000;5.874;2023-05-17T00:45:33;13.20;99.90
11532;DHT22;5822;51.000;5.874;2023-05-17T00:47:59;13.20;99.90
11532;DHT22;5822;51.000;5.874;2023-05-17T00:50:25;13.20;99.90
11532;DHT22;5822;51.000;5.874;2023-05-17T00:52:51;13.20;99.90
11532;DHT22;5822;51.000;5.874;2023-05-17T00:55:17;13.10;99.90
11532;DHT22;5822;51.000;5.874;2023-05-17T00:57:44;13.10;99.90
11532;DHT22;5822;51.000;5.874;2023-05-17T01:00:11;13.10;99.90
11532;DHT22;5822;51.000;5.874;2023-05-17T01:02:37;13.10;99.90
11532;DHT22;5822;51.000;5.874;2023-05-17T01:05:03;13.00;99.90
11532;DHT22;5822;51.000;5.874;2023-05-17T01:07:29;13.00;99.90
11532;DHT22;5822;51.000;5.874;2023-05-17T01:09:54;13.10;99.90
11532;DHT22;5822;51.000;5.874;2023-05-17T01:13:09;13.00;99.90
11532;DHT22;5822;51.000;5.874;2023-05-17T01:15:48;13.00;99.90
11532;DHT22;5822;51.000;5.874;2023-05-17T01:18:22;13.00;99.90
11532;DHT22;5822;51.000;5.874;2023-05-17T01:20:52;13.00;99.90
11532;DHT22;5822;51.000;5.874;2023-05-17T01:28:30;12.90;99.90
11532;DHT22;5822;51.000;5.874;2023-05-17T01:30:57;12.90;99.90
11532;DHT22;5822;51.000;5.874;2023-05-17T01:33:23;12.90;99.90
11532;DHT22;5822;51.000;5.874;2023-05-17T01:35:49;12.90;99.90
11532;DHT22;5822;51.000;5.874;2023-05-17T01:38:15;12.90;99.90
11532;DHT22;5822;51.000;5.874;2023-05-17T01:46:25;12.80;99.90
11532;DHT22;5822;51.000;5.874;2023-05-17T01:49:29;12.80;99.90
11532;DHT22;5822;51.000;5.874;2023-05-17T01:52:14;12.80;99.90
11532;DHT22;5822;51.000;5.874;2023-05-17T01:54:55;12.80;99.90
11532;DHT22;5822;51.000;5.874;2023-05-17T01:57:28;12.70;99.90
11532;DHT22;5822;51.000;5.874;2023-05-17T01:59:59;12.60;99.90
11532;DHT22;5822;51.000;5.874;2023-05-17T02:02:25;12.70;99.90
11532;DHT22;5822;51.000;5.874;2023-05-17T02:04:51;12.70;99.90
11532;DHT22;5822;51.000;5.874;2023-05-17T02:07:16;12.70;99.90
11532;DHT22;5822;51.000;5.874;2023-05-17T02:09:42;12.70;99.90
11532;DHT22;5822;51.000;5.874;2023-05-17T02:12:08;12.80;99.90
11532;DHT22;5822;51.000;5.874;2023-05-17T02:14:33;12.80;99.90
11532;DHT22;5822;51.000;5.874;2023-05-17T02:16:59;12.80;99.90
11532;DHT22;5822;51.000;5.874;2023-05-17T02:19:25;12.80;99.90
11532;DHT22;5822;51.000;5.874;2023-05-17T02:21:50;12.70;99.90
11532;DHT22;5822;51.000;5.874;2023-05-17T02:24:16;12.70;99.90
11532;DHT22;5822;51.000;5.874;2023-05-17T02:26:41;12.70;99.90
11532;DHT22;5822;51.000;5.874;2023-05-17T02:29:08;12.70;99.90
11532;DHT22;5822;51.000;5.874;2023-05-17T02:31:35;12.60;99.90
11532;DHT22;5822;51.000;5.874;2023-05-17T02:34:01;12.60;99.90
11532;DHT22;5822;51.000;5.874;2023-05-17T02:36:27;12.50;99.90
11532;DHT22;5822;51.000;5.874;2023-05-17T02:38:52;12.50;99.90
11532;DHT22;5822;51.000;5.874;2023-05-17T02:41:18;12.40;99.90
11532;DHT22;5822;51.000;5.874;2023-05-17T02:43:43;12.30;99.90
11532;DHT22;5822;51.000;5.874;2023-05-17T02:46:09;12.30;99.90
11532;DHT22;5822;51.000;5.874;2023-05-17T02:48:37;12.20;99.90
11532;DHT22;5822;51.000;5.874;2023-05-17T02:51:03;12.20;99.90
11532;DHT22;5822;51.000;5.874;2023-05-17T02:53:29;12.10;99.90
11532;DHT22;5822;51.000;5.874;2023-05-17T02:55:54;12.10;99.90
11532;DHT22;5822;51.000;5.874;2023-05-17T02:58:23;12.10;99.90
11532;DHT22;5822;51.000;5.874;2023-05-17T03:00:51;12.10;99.90
11532;DHT22;5822;51.000;5.874;2023-05-17T03:03:17;12.10;99.90
11532;DHT22;5822;51.000;5.874;2023-05-17T03:05:42;12.20;99.90
11532;DHT22;5822;51.000;5.874;2023-05-17T03:08:08;12.10;99.90
11532;DHT22;5822;51.000;5.874;2023-05-17T03:10:34;12.00;99.90
11532;DHT22;5822;51.000;5.874;2023-05-17T03:12:59;12.00;99.90
11532;DHT22;5822;51.000;5.874;2023-05-17T03:15:25;12.00;99.90
11532;DHT22;5822;51.000;5.874;2023-05-17T03:17:54;12.00;99.90
11532;DHT22;5822;51.000;5.874;2023-05-17T03:20:20;12.10;99.90
11532;DHT22;5822;51.000;5.874;2023-05-17T03:22:46;12.00;99.90
11532;DHT22;5822;51.000;5.874;2023-05-17T03:25:11;12.00;99.90
11532;DHT22;5822;51.000;5.874;2023-05-17T03:27:37;12.00;99.90
11532;DHT22;5822;51.000;5.874;2023-05-17T03:30:03;12.00;99.90
11532;DHT22;5822;51.000;5.874;2023-05-17T03:32:29;12.00;99.90
11532;DHT22;5822;51.000;5.874;2023-05-17T03:34:54;11.90;99.90
11532;DHT22;5822;51.000;5.874;2023-05-17T03:37:20;12.00;99.90
11532;DHT22;5822;51.000;5.874;2023-05-17T03:39:46;12.00;99.90
11532;DHT22;5822;51.000;5.874;2023-05-17T03:42:11;12.00;99.90
11532;DHT22;5822;51.000;5.874;2023-05-17T03:44:37;12.00;99.90
11532;DHT22;5822;51.000;5.874;2023-05-17T03:47:03;12.00;99.90
11532;DHT22;5822;51.000;5.874;2023-05-17T03:49:28;12.00;99.90
11532;DHT22;5822;51.000;5.874;2023-05-17T03:51:54;12.00;99.90
11532;DHT22;5822;51.000;5.874;2023-05-17T03:54:20;11.90;99.90
11532;DHT22;5822;51.000;5.874;2023-05-17T03:56:45;12.10;99.90
11532;DHT22;5822;51.000;5.874;2023-05-17T03:59:13;12.20;99.90
11532;DHT22;5822;51.000;5.874;2023-05-17T04:01:39;12.00;99.90
11532;DHT22;5822;51.000;5.874;2023-05-17T04:04:06;12.00;99.90
11532;DHT22;5822;51.000;5.874;2023-05-17T04:06:31;12.10;99.90
11532;DHT22;5822;51.000;5.874;2023-05-17T04:08:57;12.00;99.90
11532;DHT22;5822;51.000;5.874;2023-05-17T04:11:25;12.10;99.90
11532;DHT22;5822;51.000;5.874;2023-05-17T04:13:52;12.00;99.90
11532;DHT22;5822;51.000;5.874;2023-05-17T04:16:18;12.20;99.90
11532;DHT22;5822;51.000;5.874;2023-05-17T04:18:44;12.10;99.90
11532;DHT22;5822;51.000;5.874;2023-05-17T04:21:10;12.30;99.90
11532;DHT22;5822;51.000;5.874;2023-05-17T04:23:36;12.30;99.90
11532;DHT22;5822;51.000;5.874;2023-05-17T04:26:02;12.20;99.90
11532;DHT22;5822;51.000;5.874;2023-05-17T04:28:28;12.30;99.90
11532;DHT22;5822;51.000;5.874;2023-05-17T04:30:55;12.40;99.90
11532;DHT22;5822;51.000;5.874;2023-05-17T04:33:20;12.40;99.90
11532;DHT22;5822;51.000;5.874;2023-05-17T04:35:46;12.50;99.90
11532;DHT22;5822;51.000;5.874;2023-05-17T04:38:12;12.40;99.90
11532;DHT22;5822;51.000;5.874;2023-05-17T04:40:38;12.30;99.90
11532;DHT22;5822;51.000;5.874;2023-05-17T04:43:05;12.40;99.90
11532;DHT22;5822;51.000;5.874;2023-05-17T04:45:30;12.40;99.90
11532;DHT22;5822;51.000;5.874;2023-05-17T04:47:58;12.60;99.90
11532;DHT22;5822;51.000;5.874;2023-05-17T04:50:24;12.40;99.90
11532;DHT22;5822;51.000;5.874;2023-05-17T04:52:51;12.50;99.90
11532;DHT22;5822;51.000;5.874;2023-05-17T04:55:16;12.60;99.90
11532;DHT22;5822;51.000;5.874;2023-05-17T04:57:42;12.40;99.90
11532;DHT22;5822;51.000;5.874;2023-05-17T05:00:08;12.40;99.90
11532;DHT22;5822;51.000;5.874;2023-05-17T05:02:34;12.60;99.90
11532;DHT22;5822;51.000;5.874;2023-05-17T05:05:01;12.80;99.90
11532;DHT22;5822;51.000;5.874;2023-05-17T05:07:26;12.90;99.90
11532;DHT22;5822;51.000;5.874;2023-05-17T05:09:52;12.90;99.90
11532;DHT22;5822;51.000;5.874;2023-05-17T05:12:18;12.90;99.90
11532;DHT22;5822;51.000;5.874;2023-05-17T05:14:43;13.00;99.90
11532;DHT22;5822;51.000;5.874;2023-05-17T05:17:09;13.00;99.90
11532;DHT22;5822;51.000;5.874;2023-05-17T05:19:35;13.00;99.90
11532;DHT22;5822;51.000;5.874;2023-05-17T05:22:01;13.00;99.90
11532;DHT22;5822;51.000;5.874;2023-05-17T05:24:26;13.00;99.90
11532;DHT22;5822;51.000;5.874;2023-05-17T05:26:52;13.00;99.90
11532;DHT22;5822;51.000;5.874;2023-05-17T05:29:18;13.10;99.90
11532;DHT22;5822;51.000;5.874;2023-05-17T05:31:43;13.10;99.90
11532;DHT22;5822;51.000;5.874;2023-05-17T05:34:09;13.10;99.90
11532;DHT22;5822;51.000;5.874;2023-05-17T05:36:35;13.10;99.90
11532;DHT22;5822;51.000;5.874;2023-05-17T05:39:01;13.10;99.90
11532;DHT22;5822;51.000;5.874;2023-05-17T05:41:27;13.00;99.90
11532;DHT22;5822;51.000;5.874;2023-05-17T05:43:52;13.10;99.90
11532;DHT22;5822;51.000;5.874;2023-05-17T05:46:18;13.10;99.90
11532;DHT22;5822;51.000;5.874;2023-05-17T05:48:44;13.20;99.90
11532;DHT22;5822;51.000;5.874;2023-05-17T05:51:09;13.30;99.90
11532;DHT22;5822;51.000;5.874;2023-05-17T05:53:36;13.40;99.90
11532;DHT22;5822;51.000;5.874;2023-05-17T05:56:02;13.30;99.90
11532;DHT22;5822;51.000;5.874;2023-05-17T05:58:28;13.40;99.90
11532;DHT22;5822;51.000;5.874;2023-05-17T06:00:54;13.40;99.90
11532;DHT22;5822;51.000;5.874;2023-05-17T06:03:21;13.50;99.90
11532;DHT22;5822;51.000;5.874;2023-05-17T06:05:47;13.60;99.90
11532;DHT22;5822;51.000;5.874;2023-05-17T06:08:13;13.60;99.90
11532;DHT22;5822;51.000;5.874;2023-05-17T06:10:38;13.60;99.90
11532;DHT22;5822;51.000;5.874;2023-05-17T06:13:04;13.70;99.90
11532;DHT22;5822;51.000;5.874;2023-05-17T06:15:30;13.70;99.90
11532;DHT22;5822;51.000;5.874;2023-05-17T06:17:56;13.70;99.90
11532;DHT22;5822;51.000;5.874;2023-05-17T06:20:21;13.70;99.90
11532;DHT22;5822;51.000;5.874;2023-05-17T06:22:47;13.70;99.90
11532;DHT22;5822;51.000;5.874;2023-05-17T06:25:13;13.70;99.90
11532;DHT22;5822;51.000;5.874;2023-05-17T06:27:39;13.80;99.90
11532;DHT22;5822;51.000;5.874;2023-05-17T06:30:05;13.80;99.90
11532;DHT22;5822;51.000;5.874;2023-05-17T06:32:31;13.80;99.90
11532;DHT22;5822;51.000;5.874;2023-05-17T06:34:57;13.80;99.90
11532;DHT22;5822;51.000;5.874;2023-05-17T06:37:23;13.80;99.90
11532;DHT22;5822;51.000;5.874;2023-05-17T06:39:50;13.80;99.90
11532;DHT22;5822;51.000;5.874;2023-05-17T06:42:16;13.80;99.90
11532;DHT22;5822;51.000;5.874;2023-05-17T06:44:42;13.80;99.90
11532;DHT22;5822;51.000;5.874;2023-05-17T06:47:08;13.90;99.90
11532;DHT22;5822;51.000;5.874;2023-05-17T06:49:33;13.90;99.90
11532;DHT22;5822;51.000;5.874;2023-05-17T06:51:59;13.90;99.90
11532;DHT22;5822;51.000;5.874;2023-05-17T06:54:30;13.90;99.90
11532;DHT22;5822;51.000;5.874;2023-05-17T06:57:02;14.00;99.90
11532;DHT22;5822;51.000;5.874;2023-05-17T06:59:28;14.00;99.90
11532;DHT22;5822;51.000;5.874;2023-05-17T07:01:54;14.10;99.90
11532;DHT22;5822;51.000;5.874;2023-05-17T07:04:20;14.10;99.90
11532;DHT22;5822;51.000;5.874;2023-05-17T07:06:46;14.10;99.90
11532;DHT22;5822;51.000;5.874;2023-05-17T07:09:12;14.10;99.90
11532;DHT22;5822;51.000;5.874;2023-05-17T07:11:38;14.10;99.90
11532;DHT22;5822;51.000;5.874;2023-05-17T07:14:03;14.10;99.90
11532;DHT22;5822;51.000;5.874;2023-05-17T07:16:29;14.10;99.90
11532;DHT22;5822;51.000;5.874;2023-05-17T07:18:55;14.10;99.90
11532;DHT22;5822;51.000;5.874;2023-05-17T07:21:22;14.10;99.90
11532;DHT22;5822;51.000;5.874;2023-05-17T07:23:48;14.20;99.90
11532;DHT22;5822;51.000;5.874;2023-05-17T07:26:14;14.20;99.90
11532;DHT22;5822;51.000;5.874;2023-05-17T07:28:40;14.20;99.90
11532;DHT22;5822;51.000;5.874;2023-05-17T07:31:05;14.20;99.90
11532;DHT22;5822;51.000;5.874;2023-05-17T07:33:31;14.20;99.90
11532;DHT22;5822;51.000;5.874;2023-05-17T07:35:57;14.30;99.90
11532;DHT22;5822;51.000;5.874;2023-05-17T07:38:22;14.30;99.90
11532;DHT22;5822;51.000;5.874;2023-05-17T07:40:48;14.20;99.90
11532;DHT22;5822;51.000;5.874;2023-05-17T07:43:14;14.20;99.90
11532;DHT22;5822;51.000;5.874;2023-05-17T07:45:41;14.20;99.90
11532;DHT22;5822;51.000;5.874;2023-05-17T07:48:07;14.30;99.90
11532;DHT22;5822;51.000;5.874;2023-05-17T07:50:32;14.30;99.90
11532;DHT22;5822;51.000;5.874;2023-05-17T07:52:58;14.40;99.90
11532;DHT22;5822;51.000;5.874;2023-05-17T07:55:24;14.40;99.90
11532;DHT22;5822;51.000;5.874;2023-05-17T07:57:49;14.50;99.90
11532;DHT22;5822;51.000;5.874;2023-05-17T08:00:17;14.50;99.90
11532;DHT22;5822;51.000;5.874;2023-05-17T08:02:44;14.50;99.90
11532;DHT22;5822;51.000;5.874;2023-05-17T08:05:09;14.60;99.90
11532;DHT22;5822;51.000;5.874;2023-05-17T08:07:35;14.50;99.90
11532;DHT22;5822;51.000;5.874;2023-05-17T08:10:01;14.50;99.90
11532;DHT22;5822;51.000;5.874;2023-05-17T08:12:27;14.50;99.90
11532;DHT22;5822;51.000;5.874;2023-05-17T08:14:52;14.60;99.90
11532;DHT22;5822;51.000;5.874;2023-05-17T08:17:18;14.60;99.90
11532;DHT22;5822;51.000;5.874;2023-05-17T08:19:44;14.60;99.90
11532;DHT22;5822;51.000;5.874;2023-05-17T08:22:09;14.50;99.90
11532;DHT22;5822;51.000;5.874;2023-05-17T08:24:35;14.50;99.90
11532;DHT22;5822;51.000;5.874;2023-05-17T08:27:01;14.50;99.90
11532;DHT22;5822;51.000;5.874;2023-05-17T08:29:26;14.50;99.90
11532;DHT22;5822;51.000;5.874;2023-05-17T08:31:55;14.40;99.90
11532;DHT22;5822;51.000;5.874;2023-05-17T08:34:21;14.40;99.90
11532;DHT22;5822;51.000;5.874;2023-05-17T08:36:46;14.40;99.90
11532;DHT22;5822;51.000;5.874;2023-05-17T08:39:12;14.40;99.90
11532;DHT22;5822;51.000;5.874;2023-05-17T08:41:38;14.40;99.90
11532;DHT22;5822;51.000;5.874;2023-05-17T08:44:05;14.40;99.90
11532;DHT22;5822;51.000;5.874;2023-05-17T08:46:34;14.50;99.90
11532;DHT22;5822;51.000;5.874;2023-05-17T08:49:02;14.50;99.90
11532;DHT22;5822;51.000;5.874;2023-05-17T08:51:30;14.40;99.90
11532;DHT22;5822;51.000;5.874;2023-05-17T08:53:57;14.50;99.90
11532;DHT22;5822;51.000;5.874;2023-05-17T08:56:24;14.50;99.90
11532;DHT22;5822;51.000;5.874;2023-05-17T08:58:53;14.50;99.90
11532;DHT22;5822;51.000;5.874;2023-05-17T09:01:20;14.60;99.90
11532;DHT22;5822;51.000;5.874;2023-05-17T09:03:47;14.70;99.90
11532;DHT22;5822;51.000;5.874;2023-05-17T09:06:24;14.80;99.90
11532;DHT22;5822;51.000;5.874;2023-05-17T09:08:52;14.80;99.90
11532;DHT22;5822;51.000;5.874;2023-05-17T09:11:25;14.80;99.90
11532;DHT22;5822;51.000;5.874;2023-05-17T09:13:52;14.80;99.90
11532;DHT22;5822;51.000;5.874;2023-05-17T09:16:18;14.80;99.90
11532;DHT22;5822;51.000;5.874;2023-05-17T09:18:56;14.90;99.90
11532;DHT22;5822;51.000;5.874;2023-05-17T09:21:22;14.90;99.90
11532;DHT22;5822;51.000;5.874;2023-05-17T09:23:50;14.90;99.90
11532;DHT22;5822;51.000;5.874;2023-05-17T09:26:16;14.90;99.90
11532;DHT22;5822;51.000;5.874;2023-05-17T09:28:42;15.00;99.90
11532;DHT22;5822;51.000;5.874;2023-05-17T09:31:09;15.00;99.90
11532;DHT22;5822;51.000;5.874;2023-05-17T09:33:47;15.00;99.90
11532;DHT22;5822;51.000;5.874;2023-05-17T09:38:42;15.20;99.90
11532;DHT22;5822;51.000;5.874;2023-05-17T09:41:09;15.30;99.90
11532;DHT22;5822;51.000;5.874;2023-05-17T09:43:35;15.40;99.90
11532;DHT22;5822;51.000;5.874;2023-05-17T09:46:01;15.40;99.90
11532;DHT22;5822;51.000;5.874;2023-05-17T09:48:27;15.40;99.90
11532;DHT22;5822;51.000;5.874;2023-05-17T09:50:52;15.40;99.90
11532;DHT22;5822;51.000;5.874;2023-05-17T09:53:26;15.40;99.90
11532;DHT22;5822;51.000;5.874;2023-05-17T09:55:56;15.40;99.90
11532;DHT22;5822;51.000;5.874;2023-05-17T09:58:24;15.30;99.90
11532;DHT22;5822;51.000;5.874;2023-05-17T10:01:14;15.30;99.90
11532;DHT22;5822;51.000;5.874;2023-05-17T10:03:40;15.30;99.90
11532;DHT22;5822;51.000;5.874;2023-05-17T10:06:07;15.30;99.90
11532;DHT22;5822;51.000;5.874;2023-05-17T10:08:34;15.30;99.90
11532;DHT22;5822;51.000;5.874;2023-05-17T10:11:06;15.30;99.90
11532;DHT22;5822;51.000;5.874;2023-05-17T10:13:57;15.20;99.90
11532;DHT22;5822;51.000;5.874;2023-05-17T10:16:24;15.30;99.90
11532;DHT22;5822;51.000;5.874;2023-05-17T10:18:51;15.30;99.90
11532;DHT22;5822;51.000;5.874;2023-05-17T10:21:17;15.20;99.90
11532;DHT22;5822;51.000;5.874;2023-05-17T10:23:43;15.30;99.90
11532;DHT22;5822;51.000;5.874;2023-05-17T10:26:12;15.30;99.90
11532;DHT22;5822;51.000;5.874;2023-05-17T10:28:38;15.40;99.90
11532;DHT22;5822;51.000;5.874;2023-05-17T10:31:04;15.40;99.90
11532;DHT22;5822;51.000;5.874;2023-05-17T10:33:31;15.40;99.90
11532;DHT22;5822;51.000;5.874;2023-05-17T10:35:58;15.40;99.90
11532;DHT22;5822;51.000;5.874;2023-05-17T10:38:26;15.40;99.90
11532;DHT22;5822;51.000;5.874;2023-05-17T10:40:52;15.40;99.90
11532;DHT22;5822;51.000;5.874;2023-05-17T10:43:20;15.50;99.90
11532;DHT22;5822;51.000;5.874;2023-05-17T10:45:46;15.60;99.90
11532;DHT22;5822;51.000;5.874;2023-05-17T10:48:14;15.50;99.90
11532;DHT22;5822;51.000;5.874;2023-05-17T10:50:45;15.50;99.90
11532;DHT22;5822;51.000;5.874;2023-05-17T10:53:11;15.50;99.90
11532;DHT22;5822;51.000;5.874;2023-05-17T10:55:42;15.50;99.90
11532;DHT22;5822;51.000;5.874;2023-05-17T10:58:17;15.50;99.90
11532;DHT22;5822;51.000;5.874;2023-05-17T11:00:47;15.60;99.90
11532;DHT22;5822;51.000;5.874;2023-05-17T11:03:17;15.60;99.90
11532;DHT22;5822;51.000;5.874;2023-05-17T11:08:28;15.60;99.90
11532;DHT22;5822;51.000;5.874;2023-05-17T11:11:17;15.60;99.90
11532;DHT22;5822;51.000;5.874;2023-05-17T11:13:50;15.60;99.90
11532;DHT22;5822;51.000;5.874;2023-05-17T11:16:20;15.70;99.90
11532;DHT22;5822;51.000;5.874;2023-05-17T11:18:47;15.80;99.90
11532;DHT22;5822;51.000;5.874;2023-05-17T11:21:13;15.90;99.90
11532;DHT22;5822;51.000;5.874;2023-05-17T11:23:45;15.90;99.90
11532;DHT22;5822;51.000;5.874;2023-05-17T11:26:21;15.90;99.90
11532;DHT22;5822;51.000;5.874;2023-05-17T11:28:55;16.00;99.90
11532;DHT22;5822;51.000;5.874;2023-05-17T11:31:34;16.00;99.90
11532;DHT22;5822;51.000;5.874;2023-05-17T11:34:02;16.00;99.90
11532;DHT22;5822;51.000;5.874;2023-05-17T11:36:30;16.10;99.90
11532;DHT22;5822;51.000;5.874;2023-05-17T11:39:17;16.10;99.90
11532;DHT22;5822;51.000;5.874;2023-05-17T11:41:48;16.10;99.90
11532;DHT22;5822;51.000;5.874;2023-05-17T11:44:15;16.10;99.90
11532;DHT22;5822;51.000;5.874;2023-05-17T11:46:47;16.10;99.90
11532;DHT22;5822;51.000;5.874;2023-05-17T11:49:13;16.10;99.90
11532;DHT22;5822;51.000;5.874;2023-05-17T11:51:40;16.20;99.90
11532;DHT22;5822;51.000;5.874;2023-05-17T11:54:07;16.30;99.90
11532;DHT22;5822;51.000;5.874;2023-05-17T11:56:34;16.40;99.90
11532;DHT22;5822;51.000;5.874;2023-05-17T11:59:04;16.40;99.90
11532;DHT22;5822;51.000;5.874;2023-05-17T12:01:46;16.40;99.90
11532;DHT22;5822;51.000;5.874;2023-05-17T12:04:12;16.30;99.90
11532;DHT22;5822;51.000;5.874;2023-05-17T12:06:38;16.30;99.90
11532;DHT22;5822;51.000;5.874;2023-05-17T12:09:04;16.20;99.90
11532;DHT22;5822;51.000;5.874;2023-05-17T12:11:35;16.20;99.90
11532;DHT22;5822;51.000;5.874;2023-05-17T12:14:01;16.10;99.90
11532;DHT22;5822;51.000;5.874;2023-05-17T12:16:27;16.20;99.90
11532;DHT22;5822;51.000;5.874;2023-05-17T12:18:54;16.20;99.90
11532;DHT22;5822;51.000;5.874;2023-05-17T12:21:21;16.30;99.90
11532;DHT22;5822;51.000;5.874;2023-05-17T12:23:50;16.30;99.90
11532;DHT22;5822;51.000;5.874;2023-05-17T12:26:20;16.40;99.90
11532;DHT22;5822;51.000;5.874;2023-05-17T12:28:58;16.50;99.90
11532;DHT22;5822;51.000;5.874;2023-05-17T12:31:38;16.50;99.90
11532;DHT22;5822;51.000;5.874;2023-05-17T12:34:05;16.50;99.90
11532;DHT22;5822;51.000;5.874;2023-05-17T12:36:31;16.50;99.90
11532;DHT22;5822;51.000;5.874;2023-05-17T12:39:02;16.50;99.90
11532;DHT22;5822;51.000;5.874;2023-05-17T12:41:30;16.50;99.90
11532;DHT22;5822;51.000;5.874;2023-05-17T12:43:56;16.30;99.90
11532;DHT22;5822;51.000;5.874;2023-05-17T12:46:23;16.40;99.90
11532;DHT22;5822;51.000;5.874;2023-05-17T12:48:50;16.40;99.90
11532;DHT22;5822;51.000;5.874;2023-05-17T12:51:16;16.40;99.90
11532;DHT22;5822;51.000;5.874;2023-05-17T12:53:44;16.40;99.90
11532;DHT22;5822;51.000;5.874;2023-05-17T12:56:20;16.40;99.90
11532;DHT22;5822;51.000;5.874;2023-05-17T12:59:15;16.50;99.90
11532;DHT22;5822;51.000;5.874;2023-05-17T13:01:55;16.50;99.90
11532;DHT22;5822;51.000;5.874;2023-05-17T13:04:31;16.60;99.90
11532;DHT22;5822;51.000;5.874;2023-05-17T13:06:59;16.60;99.90
11532;DHT22;5822;51.000;5.874;2023-05-17T13:09:27;16.60;99.90
11532;DHT22;5822;51.000;5.874;2023-05-17T13:14:47;17.00;99.90
11532;DHT22;5822;51.000;5.874;2023-05-17T13:17:35;17.30;99.90
11532;DHT22;5822;51.000;5.874;2023-05-17T13:20:06;17.60;99.90
11532;DHT22;5822;51.000;5.874;2023-05-17T13:22:32;17.80;99.90
11532;DHT22;5822;51.000;5.874;2023-05-17T13:24:58;18.00;99.90
11532;DHT22;5822;51.000;5.874;2023-05-17T13:27:23;18.20;99.90
11532;DHT22;5822;51.000;5.874;2023-05-17T13:29:49;18.30;99.90
11532;DHT22;5822;51.000;5.874;2023-05-17T13:32:15;18.40;99.90
11532;DHT22;5822;51.000;5.874;2023-05-17T13:34:41;18.50;99.90
11532;DHT22;5822;51.000;5.874;2023-05-17T13:37:06;18.60;99.90
11532;DHT22;5822;51.000;5.874;2023-05-17T13:39:32;18.70;99.90
11532;DHT22;5822;51.000;5.874;2023-05-17T13:41:58;18.80;99.90
11532;DHT22;5822;51.000;5.874;2023-05-17T13:44:24;18.90;99.90
11532;DHT22;5822;51.000;5.874;2023-05-17T13:46:50;18.90;99.90
11532;DHT22;5822;51.000;5.874;2023-05-17T13:49:16;19.10;99.90
11532;DHT22;5822;51.000;5.874;2023-05-17T13:51:41;19.20;99.90
11532;DHT22;5822;51.000;5.874;2023-05-17T13:54:08;19.30;99.90
11532;DHT22;5822;51.000;5.874;2023-05-17T13:56:33;19.40;99.90
11532;DHT22;5822;51.000;5.874;2023-05-17T13:58:59;19.50;99.90
11532;DHT22;5822;51.000;5.874;2023-05-17T14:01:25;19.60;99.90
11532;DHT22;5822;51.000;5.874;2023-05-17T14:03:51;19.60;99.90
11532;DHT22;5822;51.000;5.874;2023-05-17T14:06:17;19.70;99.90
11532;DHT22;5822;51.000;5.874;2023-05-17T14:08:42;19.70;99.90
11532;DHT22;5822;51.000;5.874;2023-05-17T14:11:10;19.70;99.90
11532;DHT22;5822;51.000;5.874;2023-05-17T14:13:36;19.70;99.90
11532;DHT22;5822;51.000;5.874;2023-05-17T14:16:01;19.60;99.90
11532;DHT22;5822;51.000;5.874;2023-05-17T14:18:27;19.60;99.90
11532;DHT22;5822;51.000;5.874;2023-05-17T14:20:53;19.60;99.90
11532;DHT22;5822;51.000;5.874;2023-05-17T14:23:19;19.50;99.90
11532;DHT22;5822;51.000;5.874;2023-05-17T14:25:46;19.30;99.90
11532;DHT22;5822;51.000;5.874;2023-05-17T14:28:13;19.30;99.90
11532;DHT22;5822;51.000;5.874;2023-05-17T14:30:41;19.20;99.90
11532;DHT22;5822;51.000;5.874;2023-05-17T14:33:06;19.10;99.90
11532;DHT22;5822;51.000;5.874;2023-05-17T14:35:32;19.10;99.90
11532;DHT22;5822;51.000;5.874;2023-05-17T14:37:58;19.20;99.90
11532;DHT22;5822;51.000;5.874;2023-05-17T14:40:23;19.30;99.90
11532;DHT22;5822;51.000;5.874;2023-05-17T14:42:49;19.40;99.90
11532;DHT22;5822;51.000;5.874;2023-05-17T14:45:14;19.50;99.90
11532;DHT22;5822;51.000;5.874;2023-05-17T14:47:40;19.60;99.90
11532;DHT22;5822;51.000;5.874;2023-05-17T14:50:06;19.70;99.90
11532;DHT22;5822;51.000;5.874;2023-05-17T14:52:32;19.80;99.90
11532;DHT22;5822;51.000;5.874;2023-05-17T14:54:59;19.90;99.90
11532;DHT22;5822;51.000;5.874;2023-05-17T14:57:24;19.90;99.90
11532;DHT22;5822;51.000;5.874;2023-05-17T14:59:50;19.90;99.90
11532;DHT22;5822;51.000;5.874;2023-05-17T15:02:16;20.00;99.90
11532;DHT22;5822;51.000;5.874;2023-05-17T15:04:42;20.00;99.90
11532;DHT22;5822;51.000;5.874;2023-05-17T15:07:08;20.00;99.90
11532;DHT22;5822;51.000;5.874;2023-05-17T15:09:41;20.00;99.90
11532;DHT22;5822;51.000;5.874;2023-05-17T15:12:09;19.90;99.90
11532;DHT22;5822;51.000;5.874;2023-05-17T15:14:35;19.80;99.90
11532;DHT22;5822;51.000;5.874;2023-05-17T15:17:01;19.80;99.90
11532;DHT22;5822;51.000;5.874;2023-05-17T15:19:28;19.80;99.90
11532;DHT22;5822;51.000;5.874;2023-05-17T15:21:53;19.70;99.90
11532;DHT22;5822;51.000;5.874;2023-05-17T15:24:19;19.70;99.90
11532;DHT22;5822;51.000;5.874;2023-05-17T15:26:45;19.70;99.90
11532;DHT22;5822;51.000;5.874;2023-05-17T15:29:10;19.70;99.90
11532;DHT22;5822;51.000;5.874;2023-05-17T15:31:36;19.80;99.90
11532;DHT22;5822;51.000;5.874;2023-05-17T15:34:02;19.80;99.90
11532;DHT22;5822;51.000;5.874;2023-05-17T15:36:29;19.70;99.90
11532;DHT22;5822;51.000;5.874;2023-05-17T15:38:54;19.70;99.90
11532;DHT22;5822;51.000;5.874;2023-05-17T15:41:20;19.80;99.90
11532;DHT22;5822;51.000;5.874;2023-05-17T15:43:51;19.70;99.90
11532;DHT22;5822;51.000;5.874;2023-05-17T15:46:17;19.80;99.90
11532;DHT22;5822;51.000;5.874;2023-05-17T15:48:44;19.80;99.90
11532;DHT22;5822;51.000;5.874;2023-05-17T15:51:10;19.80;99.90
11532;DHT22;5822;51.000;5.874;2023-05-17T15:53:36;19.80;99.90
11532;DHT22;5822;51.000;5.874;2023-05-17T15:56:02;19.90;99.90
11532;DHT22;5822;51.000;5.874;2023-05-17T15:58:28;19.80;99.90
11532;DHT22;5822;51.000;5.874;2023-05-17T16:00:58;19.80;99.90
11532;DHT22;5822;51.000;5.874;2023-05-17T16:03:24;19.90;99.90
11532;DHT22;5822;51.000;5.874;2023-05-17T16:05:50;19.90;99.90